Time;durP1;ratioP1;P1;durP2;ratioP2;P2;SDS_P1;SDS_P2;PMS_P1;PMS_P2;Temp;Humidity;BMP_temperature;BMP_pressure;BME280_temperature;BME280_humidity;BME280_pressure;Samples;Min_cycle;Max_cycle;Signal;HPM_P1;HPM_P2
2023/08/05 00:00:42;;;;;;;7.60;3.20;;;;;;;;;;107028;1275;25354;-81
2023/08/05 00:03:28;;;;;;;7.70;2.90;;;;;;;;;;106969;1275;26843;-77
2023/08/05 00:05:55;;;;;;;10.70;3.20;;;;;;;;;;107073;1275;24051;-77
2023/08/05 00:08:23;;;;;;;9.90;3.80;;;;;;;;;;106910;1275;25603;-81
2023/08/05 00:10:50;;;;;;;8.70;3.00;;;;;;;;;;106850;1275;22520;-83
2023/08/05 00:13:17;;;;;;;11.70;3.20;;;;;;;;;;106920;1253;22530;-82
2023/08/05 00:15:43;;;;;;;8.60;3.30;;;;;;;;;;106900;1275;25446;-82
2023/08/05 00:18:10;;;;;;;8.60;3.50;;;;;;;;;;106918;1276;22989;-75
2023/08/05 00:20:37;;;;;;;10.20;3.40;;;;;;;;;;107060;1275;25504;-77
2023/08/05 00:23:04;;;;;;;9.20;2.90;;;;;;;;;;106930;1275;22522;-82
2023/08/05 00:25:30;;;;;;;7.20;3.00;;;;;;;;;;106910;1259;22520;-80
2023/08/05 00:27:57;;;;;;;10.40;3.10;;;;;;;;;;106968;1275;23863;-78
2023/08/05 00:30:24;;;;;;;10.00;3.00;;;;;;;;;;106948;1275;23876;-81
2023/08/05 00:32:50;;;;;;;10.10;3.10;;;;;;;;;;106952;1252;24252;-83
2023/08/05 00:35:17;;;;;;;11.20;2.90;;;;;;;;;;107028;1267;22516;-79
2023/08/05 00:37:47;;;;;;;10.50;3.20;;;;;;;;;;106896;1275;24190;-82
2023/08/05 00:40:14;;;;;;;9.80;3.40;;;;;;;;;;107111;1275;24192;-82
2023/08/05 00:42:41;;;;;;;10.90;3.40;;;;;;;;;;107044;1275;22713;-79
2023/08/05 00:45:08;;;;;;;7.20;3.00;;;;;;;;;;106905;1264;22532;-78
2023/08/05 00:47:36;;;;;;;8.80;2.60;;;;;;;;;;107054;1275;25268;-80
2023/08/05 00:50:03;;;;;;;8.00;3.50;;;;;;;;;;107044;1275;25226;-83
2023/08/05 00:52:30;;;;;;;10.30;3.50;;;;;;;;;;107070;1275;25279;-76
2023/08/05 00:54:57;;;;;;;9.90;3.50;;;;;;;;;;106941;1276;23690;-77
2023/08/05 00:57:24;;;;;;;8.00;3.10;;;;;;;;;;107066;1275;25223;-80
2023/08/05 00:59:51;;;;;;;11.30;3.40;;;;;;;;;;107056;1275;23905;-80
2023/08/05 01:02:17;;;;;;;9.30;2.70;;;;;;;;;;107099;1275;25288;-76
2023/08/05 01:04:44;;;;;;;7.60;3.00;;;;;;;;;;107033;1256;22525;-76
2023/08/05 01:07:12;;;;;;;7.40;3.00;;;;;;;;;;107070;1276;26057;-79
2023/08/05 01:09:39;;;;;;;8.70;3.50;;;;;;;;;;106945;1275;23120;-81
2023/08/05 01:12:06;;;;;;;11.70;3.10;;;;;;;;;;107025;1275;22631;-82
2023/08/05 01:14:32;;;;;;;12.50;3.90;;;;;;;;;;106937;1253;24227;-77
2023/08/05 01:16:59;;;;;;;13.10;3.30;;;;;;;;;;106845;1275;25291;-76
2023/08/05 01:19:26;;;;;;;8.00;2.90;;;;;;;;;;106915;1275;22477;-83
2023/08/05 01:22:03;;;;;;;9.70;3.30;;;;;;;;;;106911;1275;24295;-82
2023/08/05 01:24:50;;;;;;;9.70;3.20;;;;;;;;;;107093;1276;25353;-76
2023/08/05 01:27:17;;;;;;;10.90;3.70;;;;;;;;;;107086;1256;25224;-77
2023/08/05 01:29:44;;;;;;;6.40;2.80;;;;;;;;;;107018;1275;22524;-81
2023/08/05 01:32:12;;;;;;;8.10;3.40;;;;;;;;;;106994;1276;22548;-80
2023/08/05 01:34:39;;;;;;;8.40;3.40;;;;;;;;;;107015;1275;22519;-76
2023/08/05 01:37:06;;;;;;;9.30;3.00;;;;;;;;;;106919;1259;22540;-81
2023/08/05 01:39:33;;;;;;;8.80;2.80;;;;;;;;;;106905;1275;22530;-79
2023/08/05 01:42:00;;;;;;;8.90;3.40;;;;;;;;;;106944;1275;25357;-78
2023/08/05 01:44:27;;;;;;;8.80;3.40;;;;;;;;;;107066;1275;25305;-77
2023/08/05 01:46:53;;;;;;;7.30;2.80;;;;;;;;;;106920;1259;25275;-80
2023/08/05 01:49:20;;;;;;;9.80;3.50;;;;;;;;;;106895;1275;22540;-77
2023/08/05 01:51:47;;;;;;;7.30;3.30;;;;;;;;;;106934;1275;23881;-77
2023/08/05 01:54:15;;;;;;;7.00;3.30;;;;;;;;;;106920;1275;23871;-80
2023/08/05 01:56:41;;;;;;;7.40;3.50;;;;;;;;;;106914;1253;22520;-79
2023/08/05 01:59:08;;;;;;;8.60;3.40;;;;;;;;;;106942;1275;24249;-78
2023/08/05 02:01:42;;;;;;;8.80;3.20;;;;;;;;;;106949;1275;22769;-82
2023/08/05 02:04:09;;;;;;;9.20;3.50;;;;;;;;;;106943;1276;22575;-77
2023/08/05 02:06:36;;;;;;;8.40;3.40;;;;;;;;;;106886;1275;24194;-79
2023/08/05 02:09:03;;;;;;;8.50;3.70;;;;;;;;;;106942;1275;25348;-80
2023/08/05 02:11:30;;;;;;;8.00;3.80;;;;;;;;;;106943;1275;26490;-76
2023/08/05 02:13:57;;;;;;;7.80;3.70;;;;;;;;;;106906;1275;22521;-79
2023/08/05 02:16:23;;;;;;;8.70;3.30;;;;;;;;;;106877;1268;25400;-75
2023/08/05 02:18:51;;;;;;;10.30;3.30;;;;;;;;;;106924;1275;22623;-78
2023/08/05 02:21:17;;;;;;;7.90;3.40;;;;;;;;;;107006;1275;22530;-79
2023/08/05 02:23:44;;;;;;;8.20;3.50;;;;;;;;;;107019;1276;25223;-77
2023/08/05 02:26:11;;;;;;;7.70;3.50;;;;;;;;;;106942;1253;22527;-82
2023/08/05 02:28:37;;;;;;;7.90;3.70;;;;;;;;;;106866;1275;24344;-82
2023/08/05 02:31:04;;;;;;;9.40;4.00;;;;;;;;;;106865;1276;22536;-75
2023/08/05 02:33:31;;;;;;;10.20;3.60;;;;;;;;;;107017;1275;22476;-77
2023/08/05 02:35:58;;;;;;;7.40;2.90;;;;;;;;;;106909;1276;23898;-77
2023/08/05 02:38:25;;;;;;;7.80;2.80;;;;;;;;;;106905;1267;25220;-80
2023/08/05 02:40:53;;;;;;;6.70;3.20;;;;;;;;;;107016;1275;24250;-79
2023/08/05 02:43:19;;;;;;;8.10;3.30;;;;;;;;;;106922;1275;22759;-77
2023/08/05 02:45:54;;;;;;;8.70;3.50;;;;;;;;;;107058;1275;22529;-76
2023/08/05 02:48:22;;;;;;;10.00;3.80;;;;;;;;;;106958;1267;22650;-80
2023/08/05 02:50:49;;;;;;;9.50;3.10;;;;;;;;;;106921;1276;22533;-75
2023/08/05 02:53:16;;;;;;;7.20;2.80;;;;;;;;;;107031;1275;22523;-82
2023/08/05 02:55:43;;;;;;;9.00;3.00;;;;;;;;;;107022;1276;24313;-82
2023/08/05 02:58:09;;;;;;;7.30;2.90;;;;;;;;;;106896;1267;24341;-79
2023/08/05 03:00:36;;;;;;;7.10;3.40;;;;;;;;;;106751;1255;22524;-77
2023/08/05 03:03:03;;;;;;;6.60;3.20;;;;;;;;;;106806;1275;24228;-80
2023/08/05 03:05:30;;;;;;;7.70;3.50;;;;;;;;;;106922;1275;22562;-79
2023/08/05 03:07:57;;;;;;;9.70;3.80;;;;;;;;;;106963;1267;24976;-81
2023/08/05 03:10:23;;;;;;;9.70;3.90;;;;;;;;;;106941;1275;24215;-80
2023/08/05 03:12:50;;;;;;;7.60;3.60;;;;;;;;;;106929;1276;22479;-77
2023/08/05 03:15:17;;;;;;;7.70;3.40;;;;;;;;;;107025;1275;25316;-77
2023/08/05 03:17:44;;;;;;;7.50;3.40;;;;;;;;;;106975;1272;22513;-82
2023/08/05 03:20:41;;;;;;;7.90;3.70;;;;;;;;;;106914;1275;24164;-78
2023/08/05 03:23:11;;;;;;;9.20;4.20;;;;;;;;;;106961;1275;22647;-76
2023/08/05 03:25:38;;;;;;;8.20;3.60;;;;;;;;;;106918;1275;24237;-76
2023/08/05 03:28:05;;;;;;;8.10;3.40;;;;;;;;;;106847;1261;24099;-82
2023/08/05 03:30:32;;;;;;;8.20;3.40;;;;;;;;;;106918;1275;24265;-79
2023/08/05 03:32:59;;;;;;;7.80;3.10;;;;;;;;;;106909;1276;23226;-76
2023/08/05 03:35:28;;;;;;;7.20;3.40;;;;;;;;;;107052;1275;24196;-75
2023/08/05 03:37:56;;;;;;;9.40;3.80;;;;;;;;;;106941;1267;22508;-79
2023/08/05 03:40:22;;;;;;;8.20;3.70;;;;;;;;;;107011;1276;22782;-82
2023/08/05 03:42:50;;;;;;;8.10;3.60;;;;;;;;;;106823;1275;22525;-77
2023/08/05 03:45:18;;;;;;;7.60;3.80;;;;;;;;;;106914;1276;23020;-80
2023/08/05 03:47:49;;;;;;;7.30;3.70;;;;;;;;;;106998;1275;22547;-80
2023/08/05 03:50:18;;;;;;;7.90;3.50;;;;;;;;;;106881;1276;25341;-76
2023/08/05 03:52:45;;;;;;;9.00;2.80;;;;;;;;;;106996;1275;22528;-76
2023/08/05 03:55:12;;;;;;;8.60;3.40;;;;;;;;;;106889;1270;25343;-79
2023/08/05 03:57:38;;;;;;;8.50;3.60;;;;;;;;;;106886;1275;22524;-74
2023/08/05 04:00:09;;;;;;;7.60;3.80;;;;;;;;;;107017;1275;24224;-80
2023/08/05 04:02:41;;;;;;;8.30;3.50;;;;;;;;;;107045;1276;22522;-77
2023/08/05 04:05:09;;;;;;;8.40;3.50;;;;;;;;;;107095;1275;22700;-75
2023/08/05 04:07:36;;;;;;;8.00;3.50;;;;;;;;;;107054;1275;22517;-82
2023/08/05 04:10:05;;;;;;;9.60;3.40;;;;;;;;;;106857;1261;23967;-79
2023/08/05 04:12:35;;;;;;;9.00;4.10;;;;;;;;;;106968;1275;22545;-79
2023/08/05 04:15:03;;;;;;;9.70;3.90;;;;;;;;;;106993;1276;23862;-80
2023/08/05 04:17:31;;;;;;;8.60;4.30;;;;;;;;;;106990;1275;26469;-82
2023/08/05 04:20:00;;;;;;;9.90;3.80;;;;;;;;;;106939;1260;22524;-78
2023/08/05 04:22:27;;;;;;;8.60;3.80;;;;;;;;;;107028;1276;25321;-80
2023/08/05 04:24:54;;;;;;;6.80;3.50;;;;;;;;;;106891;1276;24340;-80
2023/08/05 04:27:21;;;;;;;7.70;3.40;;;;;;;;;;107088;1275;24351;-77
2023/08/05 04:29:49;;;;;;;8.50;3.40;;;;;;;;;;106909;1267;22563;-77
2023/08/05 04:32:15;;;;;;;7.20;3.80;;;;;;;;;;106882;1276;24277;-76
2023/08/05 04:34:43;;;;;;;8.50;3.80;;;;;;;;;;106867;1275;22517;-78
2023/08/05 04:37:17;;;;;;;7.50;3.70;;;;;;;;;;106873;1275;24454;-76
2023/08/05 04:39:44;;;;;;;7.90;3.50;;;;;;;;;;107030;1257;25204;-80
2023/08/05 04:42:11;;;;;;;7.80;3.80;;;;;;;;;;106923;1275;23239;-74
2023/08/05 04:44:40;;;;;;;7.60;3.50;;;;;;;;;;106889;1276;25371;-76
2023/08/05 04:47:07;;;;;;;8.40;3.50;;;;;;;;;;106978;1275;22544;-80
2023/08/05 04:49:34;;;;;;;7.20;3.20;;;;;;;;;;106915;1276;22520;-82
2023/08/05 04:52:06;;;;;;;7.10;3.70;;;;;;;;;;106876;1275;24170;-82
2023/08/05 04:54:40;;;;;;;8.20;3.90;;;;;;;;;;107017;1275;24359;-76
2023/08/05 04:57:06;;;;;;;8.00;3.60;;;;;;;;;;106928;1276;24267;-78
2023/08/05 04:59:33;;;;;;;8.10;3.90;;;;;;;;;;106943;1261;22524;-80
2023/08/05 05:02:00;;;;;;;8.40;3.60;;;;;;;;;;106856;1276;25193;-76
2023/08/05 05:04:27;;;;;;;9.80;3.70;;;;;;;;;;106887;1275;22612;-81
2023/08/05 05:06:54;;;;;;;7.60;3.60;;;;;;;;;;107009;1276;22548;-79
2023/08/05 05:09:20;;;;;;;7.70;3.50;;;;;;;;;;106875;1254;22517;-79
2023/08/05 05:11:47;;;;;;;8.10;4.00;;;;;;;;;;106886;1276;24243;-82
2023/08/05 05:14:14;;;;;;;7.90;3.80;;;;;;;;;;107007;1276;22518;-81
2023/08/05 05:16:41;;;;;;;10.20;4.30;;;;;;;;;;106913;1276;24190;-78
2023/08/05 05:19:09;;;;;;;6.80;3.50;;;;;;;;;;106890;1276;24317;-77
2023/08/05 05:21:36;;;;;;;8.00;3.70;;;;;;;;;;106910;1258;23895;-80
2023/08/05 05:24:02;;;;;;;8.00;3.60;;;;;;;;;;106838;1276;22589;-79
2023/08/05 05:26:30;;;;;;;8.10;3.80;;;;;;;;;;106879;1276;24283;-77
2023/08/05 05:28:57;;;;;;;9.50;3.50;;;;;;;;;;106875;1276;22646;-75
2023/08/05 05:31:23;;;;;;;9.00;4.20;;;;;;;;;;106884;1260;25251;-77
2023/08/05 05:33:51;;;;;;;8.70;3.80;;;;;;;;;;106892;1276;22525;-82
2023/08/05 05:36:18;;;;;;;11.20;3.80;;;;;;;;;;106951;1275;22534;-82
2023/08/05 05:38:45;;;;;;;10.00;4.00;;;;;;;;;;106922;1276;25214;-79
2023/08/05 05:41:11;;;;;;;6.40;3.20;;;;;;;;;;106923;1270;23248;-77
2023/08/05 05:43:38;;;;;;;9.30;3.70;;;;;;;;;;106949;1276;22525;-82
2023/08/05 05:46:05;;;;;;;7.60;4.30;;;;;;;;;;107059;1276;25316;-80
2023/08/05 05:48:32;;;;;;;8.10;4.30;;;;;;;;;;106933;1276;24209;-79
2023/08/05 05:50:59;;;;;;;9.40;4.30;;;;;;;;;;106876;1267;22505;-77
2023/08/05 05:53:25;;;;;;;7.10;3.40;;;;;;;;;;107003;1276;24243;-81
2023/08/05 05:55:55;;;;;;;8.50;3.90;;;;;;;;;;106881;1275;24253;-81
2023/08/05 05:58:22;;;;;;;6.50;3.20;;;;;;;;;;106970;1275;23872;-76
2023/08/05 06:00:53;;;;;;;8.80;3.80;;;;;;;;;;104538;1276;3207589;-82
2023/08/05 06:03:20;;;;;;;8.10;3.60;;;;;;;;;;106909;1276;22535;-77
2023/08/05 06:05:50;;;;;;;8.60;3.60;;;;;;;;;;106901;1276;22605;-81
2023/08/05 06:08:17;;;;;;;8.40;3.50;;;;;;;;;;107083;1276;22532;-76
2023/08/05 06:10:45;;;;;;;8.40;4.00;;;;;;;;;;107046;1254;24242;-80
2023/08/05 06:13:12;;;;;;;7.80;4.00;;;;;;;;;;107067;1276;25335;-76
2023/08/05 06:15:41;;;;;;;7.30;3.50;;;;;;;;;;106902;1276;24695;-79
2023/08/05 06:18:11;;;;;;;8.30;3.60;;;;;;;;;;107039;1276;22543;-83
2023/08/05 06:24:32;;;;;;;8.00;4.10;;;;;;;;;;107073;1272;22775;-83
2023/08/05 06:26:59;;;;;;;10.10;4.00;;;;;;;;;;106900;1276;22767;-78
2023/08/05 06:29:26;;;;;;;9.40;3.80;;;;;;;;;;106918;1276;22529;-81
2023/08/05 06:31:53;;;;;;;7.30;3.80;;;;;;;;;;107001;1276;25355;-78
2023/08/05 06:34:22;;;;;;;9.40;3.60;;;;;;;;;;107017;1267;24352;-77
2023/08/05 06:36:48;;;;;;;9.60;4.10;;;;;;;;;;107041;1276;22527;-82
2023/08/05 06:39:15;;;;;;;8.50;4.20;;;;;;;;;;106895;1276;22535;-83
2023/08/05 06:41:42;;;;;;;9.00;4.10;;;;;;;;;;106892;1263;22577;-81
2023/08/05 06:44:09;;;;;;;8.50;4.20;;;;;;;;;;106899;1258;25217;-80
2023/08/05 06:46:37;;;;;;;9.00;4.00;;;;;;;;;;106938;1276;25462;-76
2023/08/05 06:49:05;;;;;;;9.00;4.10;;;;;;;;;;106919;1276;22599;-80
2023/08/05 06:51:32;;;;;;;8.00;3.80;;;;;;;;;;107066;1275;22528;-76
2023/08/05 06:53:58;;;;;;;8.50;3.70;;;;;;;;;;107002;1275;26467;-75
2023/08/05 06:56:25;;;;;;;7.90;3.90;;;;;;;;;;107193;1275;24241;-76
2023/08/05 06:58:53;;;;;;;9.70;4.30;;;;;;;;;;106937;1275;25223;-78
2023/08/05 07:01:20;;;;;;;8.70;4.20;;;;;;;;;;106921;1276;22899;-78
2023/08/05 07:03:48;;;;;;;9.10;4.50;;;;;;;;;;107012;1254;22524;-82
2023/08/05 07:06:14;;;;;;;7.90;3.80;;;;;;;;;;107047;1276;24228;-81
2023/08/05 07:08:41;;;;;;;7.10;3.70;;;;;;;;;;107041;1275;22637;-79
2023/08/05 07:11:08;;;;;;;9.40;4.20;;;;;;;;;;107109;1276;25511;-80
2023/08/05 07:13:35;;;;;;;9.50;4.00;;;;;;;;;;106881;1257;22667;-81
2023/08/05 07:16:02;;;;;;;8.20;4.00;;;;;;;;;;106988;1276;22520;-76
2023/08/05 07:18:29;;;;;;;9.90;4.40;;;;;;;;;;106982;1276;24223;-81
2023/08/05 07:20:56;;;;;;;7.50;3.80;;;;;;;;;;106886;1276;22544;-78
2023/08/05 07:23:23;;;;;;;8.00;3.30;;;;;;;;;;106870;1257;22518;-76
2023/08/05 07:25:49;;;;;;;8.30;3.70;;;;;;;;;;106911;1276;22637;-78
2023/08/05 07:28:16;;;;;;;7.50;3.80;;;;;;;;;;106868;1276;25363;-79
2023/08/05 07:30:43;;;;;;;8.00;4.20;;;;;;;;;;106868;1276;22513;-80
2023/08/05 07:33:11;;;;;;;9.20;4.40;;;;;;;;;;106861;1275;22530;-78
2023/08/05 07:35:39;;;;;;;10.50;4.70;;;;;;;;;;106903;1257;22525;-77
2023/08/05 07:38:09;;;;;;;9.40;4.40;;;;;;;;;;106896;1276;25333;-80
2023/08/05 07:40:40;;;;;;;7.70;4.00;;;;;;;;;;106905;1276;22518;-83
2023/08/05 07:43:08;;;;;;;9.20;4.20;;;;;;;;;;107022;1276;25226;-80
2023/08/05 07:45:35;;;;;;;8.10;3.70;;;;;;;;;;106889;1261;22517;-79
2023/08/05 07:48:06;;;;;;;8.60;3.60;;;;;;;;;;106915;1276;22541;-79
2023/08/05 07:50:33;;;;;;;8.30;4.20;;;;;;;;;;106894;1276;25571;-78
2023/08/05 07:53:00;;;;;;;8.80;4.20;;;;;;;;;;107027;1275;23112;-76
2023/08/05 07:55:32;;;;;;;10.70;4.80;;;;;;;;;;106904;1261;23893;-77
2023/08/05 07:57:59;;;;;;;8.80;4.40;;;;;;;;;;107058;1275;24218;-83
2023/08/05 08:00:27;;;;;;;8.20;4.40;;;;;;;;;;106906;1276;24221;-81
2023/08/05 08:02:54;;;;;;;7.90;4.00;;;;;;;;;;106908;1276;24198;-80
2023/08/05 08:05:21;;;;;;;8.20;4.40;;;;;;;;;;106935;1276;22533;-76
2023/08/05 08:07:50;;;;;;;9.50;5.00;;;;;;;;;;107025;1276;22602;-84
2023/08/05 08:10:16;;;;;;;9.50;5.90;;;;;;;;;;106889;1276;22529;-82
2023/08/05 08:12:46;;;;;;;10.00;5.80;;;;;;;;;;106813;1275;23131;-80
2023/08/05 08:15:13;;;;;;;10.30;5.50;;;;;;;;;;106877;1257;24260;-78
2023/08/05 08:17:39;;;;;;;10.10;5.10;;;;;;;;;;106930;1276;24356;-81
2023/08/05 08:20:06;;;;;;;9.60;4.90;;;;;;;;;;106889;1276;22465;-78
2023/08/05 08:22:33;;;;;;;9.60;5.10;;;;;;;;;;106872;1276;24192;-77
2023/08/05 08:25:00;;;;;;;11.30;5.00;;;;;;;;;;106865;1259;22606;-77
2023/08/05 08:27:27;;;;;;;11.20;5.10;;;;;;;;;;106916;1275;24648;-79
2023/08/05 08:29:54;;;;;;;10.20;5.50;;;;;;;;;;107116;1275;22519;-77
2023/08/05 08:32:20;;;;;;;11.60;5.30;;;;;;;;;;107142;1275;25217;-76
2023/08/05 08:34:47;;;;;;;10.60;5.10;;;;;;;;;;106901;1264;22599;-81
2023/08/05 08:37:14;;;;;;;9.80;4.80;;;;;;;;;;106860;1275;25220;-80
2023/08/05 08:39:41;;;;;;;9.20;4.50;;;;;;;;;;106966;1273;22523;-78
2023/08/05 08:42:08;;;;;;;9.30;5.20;;;;;;;;;;107074;1275;24610;-82
2023/08/05 08:44:35;;;;;;;12.10;5.30;;;;;;;;;;106915;1275;22489;-78
2023/08/05 08:47:02;;;;;;;8.50;4.90;;;;;;;;;;107042;1256;22531;-78
2023/08/05 08:49:30;;;;;;;10.50;5.40;;;;;;;;;;107063;1275;22675;-77
2023/08/05 08:51:57;;;;;;;10.70;5.00;;;;;;;;;;107095;1275;22533;-83
2023/08/05 08:54:26;;;;;;;10.10;5.30;;;;;;;;;;107096;1275;22558;-80
2023/08/05 08:56:53;;;;;;;12.40;5.00;;;;;;;;;;107175;1275;24218;-78
2023/08/05 08:59:20;;;;;;;10.00;5.00;;;;;;;;;;107012;1267;22530;-77
2023/08/05 09:01:48;;;;;;;10.20;5.20;;;;;;;;;;106889;1275;22622;-82
2023/08/05 09:04:17;;;;;;;10.20;5.90;;;;;;;;;;106996;1273;23361;-82
2023/08/05 09:06:46;;;;;;;9.20;5.10;;;;;;;;;;110621;1253;22808;-76
2023/08/05 09:09:13;;;;;;;10.50;5.10;;;;;;;;;;110612;1275;22094;-75
2023/08/05 09:11:39;;;;;;;8.30;4.70;;;;;;;;;;110634;1275;22836;-76
2023/08/05 09:14:06;;;;;;;9.60;4.80;;;;;;;;;;110620;1275;22131;-75
2023/08/05 09:16:32;;;;;;;10.00;4.90;;;;;;;;;;110597;1254;23037;-75
2023/08/05 09:19:01;;;;;;;8.00;4.60;;;;;;;;;;110480;1275;22878;-76
2023/08/05 09:21:28;;;;;;;9.20;4.20;;;;;;;;;;110643;1275;22802;-76
2023/08/05 09:23:58;;;;;;;7.60;4.30;;;;;;;;;;110656;1275;22142;-76
2023/08/05 09:26:26;;;;;;;8.20;4.60;;;;;;;;;;110629;1254;22129;-76
2023/08/05 09:28:54;;;;;;;9.40;4.60;;;;;;;;;;110618;1275;22320;-76
2023/08/05 09:31:20;;;;;;;9.10;4.30;;;;;;;;;;110606;1275;22095;-76
2023/08/05 09:33:47;;;;;;;10.00;4.30;;;;;;;;;;110627;1275;22138;-76
2023/08/05 09:36:22;;;;;;;8.90;4.80;;;;;;;;;;110477;1251;22212;-76
2023/08/05 09:39:05;;;;;;;10.40;5.10;;;;;;;;;;110627;1275;22129;-76
2023/08/05 09:41:35;;;;;;;8.80;4.90;;;;;;;;;;110493;1276;22852;-76
2023/08/05 09:44:01;;;;;;;9.20;4.80;;;;;;;;;;110386;1276;22860;-76
2023/08/05 09:46:37;;;;;;;9.10;4.60;;;;;;;;;;110660;1253;22103;-75
2023/08/05 09:49:06;;;;;;;7.70;3.80;;;;;;;;;;110638;1276;22114;-76
2023/08/05 09:51:35;;;;;;;9.40;4.00;;;;;;;;;;110602;1276;22162;-75
2023/08/05 09:54:03;;;;;;;9.20;4.20;;;;;;;;;;110634;1276;22171;-76
2023/08/05 09:56:30;;;;;;;10.40;4.80;;;;;;;;;;110600;1253;22968;-75
2023/08/05 09:58:57;;;;;;;8.30;4.60;;;;;;;;;;110220;1276;21892;-76
2023/08/05 10:01:23;;;;;;;8.70;4.60;;;;;;;;;;110459;1276;22756;-75
2023/08/05 10:03:52;;;;;;;9.40;4.50;;;;;;;;;;110364;1276;22353;-75
2023/08/05 10:06:19;;;;;;;9.40;4.70;;;;;;;;;;110618;1276;22109;-75
2023/08/05 10:08:47;;;;;;;9.60;4.70;;;;;;;;;;110867;1256;22139;-75
2023/08/05 10:11:14;;;;;;;11.00;4.80;;;;;;;;;;110644;1276;22053;-75
2023/08/05 10:13:46;;;;;;;9.90;4.90;;;;;;;;;;110471;1276;22180;-75
2023/08/05 10:16:13;;;;;;;9.10;4.40;;;;;;;;;;110334;1276;22843;-76
2023/08/05 10:18:40;;;;;;;10.70;4.90;;;;;;;;;;110831;1257;22137;-76
2023/08/05 10:21:09;;;;;;;9.00;4.60;;;;;;;;;;110358;1276;22119;-76
2023/08/05 10:23:36;;;;;;;8.80;4.50;;;;;;;;;;110495;1276;22183;-76
2023/08/05 10:26:04;;;;;;;7.90;4.00;;;;;;;;;;110621;1276;23065;-76
2023/08/05 10:28:33;;;;;;;9.20;4.60;;;;;;;;;;110662;1254;22116;-76
2023/08/05 10:31:04;;;;;;;9.60;4.80;;;;;;;;;;110623;1276;22237;-76
2023/08/05 10:33:30;;;;;;;9.40;5.10;;;;;;;;;;110360;1276;22105;-75
2023/08/05 10:36:07;;;;;;;9.50;5.00;;;;;;;;;;110468;1276;22053;-76
2023/08/05 10:38:40;;;;;;;8.20;3.90;;;;;;;;;;110600;1256;22180;-75
2023/08/05 10:41:07;;;;;;;9.60;4.20;;;;;;;;;;110443;1276;22106;-75
2023/08/05 10:43:37;;;;;;;9.60;4.90;;;;;;;;;;110454;1276;22869;-75
2023/08/05 10:46:07;;;;;;;8.70;4.40;;;;;;;;;;110500;1276;22114;-76
2023/08/05 10:48:34;;;;;;;10.20;4.50;;;;;;;;;;110490;1257;22174;-75
2023/08/05 10:51:08;;;;;;;8.00;4.30;;;;;;;;;;110461;1276;22195;-76
2023/08/05 10:53:35;;;;;;;10.20;4.20;;;;;;;;;;110208;1265;22126;-76
2023/08/05 10:56:02;;;;;;;9.20;4.50;;;;;;;;;;110490;1276;22095;-76
2023/08/05 10:58:29;;;;;;;9.40;4.60;;;;;;;;;;110556;1257;22715;-75
2023/08/05 11:00:57;;;;;;;7.70;4.10;;;;;;;;;;110435;1276;22755;-76
2023/08/05 11:03:42;;;;;;;8.60;4.30;;;;;;;;;;110320;1276;22140;-75
2023/08/05 11:06:09;;;;;;;10.60;4.20;;;;;;;;;;110462;1276;22119;-76
2023/08/05 11:08:37;;;;;;;9.00;4.60;;;;;;;;;;110497;1255;22149;-75
2023/08/05 11:11:05;;;;;;;9.20;5.20;;;;;;;;;;110454;1276;22121;-76
2023/08/05 11:13:33;;;;;;;9.60;5.40;;;;;;;;;;110440;1276;22982;-75
2023/08/05 11:16:03;;;;;;;9.90;5.10;;;;;;;;;;110488;1276;22824;-76
2023/08/05 11:18:30;;;;;;;9.50;5.20;;;;;;;;;;110582;1256;22118;-76
2023/08/05 11:20:57;;;;;;;9.60;4.60;;;;;;;;;;110509;1276;22850;-76
2023/08/05 11:23:24;;;;;;;9.00;5.30;;;;;;;;;;110491;1276;22090;-76
2023/08/05 11:25:54;;;;;;;9.90;5.60;;;;;;;;;;110474;1276;22120;-76
2023/08/05 11:28:21;;;;;;;9.60;5.40;;;;;;;;;;110452;1253;22156;-76
2023/08/05 11:30:48;;;;;;;10.60;6.00;;;;;;;;;;110337;1272;22197;-76
2023/08/05 11:33:15;;;;;;;9.60;6.10;;;;;;;;;;110519;1276;22239;-76
2023/08/05 11:35:44;;;;;;;12.60;7.00;;;;;;;;;;110454;1276;21945;-76
2023/08/05 11:38:11;;;;;;;10.70;7.00;;;;;;;;;;110454;1271;22790;-76
2023/08/05 11:40:42;;;;;;;10.50;6.60;;;;;;;;;;110293;1261;22838;-76
2023/08/05 11:43:10;;;;;;;10.90;6.00;;;;;;;;;;110167;1278;22097;-77
2023/08/05 11:45:38;;;;;;;10.80;6.10;;;;;;;;;;110200;1278;22832;-76
2023/08/05 11:48:05;;;;;;;9.70;6.50;;;;;;;;;;110291;1278;22850;-77
2023/08/05 11:50:35;;;;;;;10.90;6.30;;;;;;;;;;110597;1260;22274;-76
2023/08/05 11:53:03;;;;;;;9.70;6.60;;;;;;;;;;110193;1278;22120;-76
2023/08/05 11:55:36;;;;;;;10.50;6.30;;;;;;;;;;110261;1278;22777;-75
2023/08/05 11:58:03;;;;;;;10.60;6.90;;;;;;;;;;110151;1278;22266;-76
2023/08/05 12:00:30;;;;;;;10.60;7.20;;;;;;;;;;110468;1260;22898;-76
2023/08/05 12:02:57;;;;;;;10.50;7.30;;;;;;;;;;110393;1278;22099;-77
2023/08/05 12:05:24;;;;;;;11.10;6.70;;;;;;;;;;110418;1278;22877;-76
2023/08/05 12:07:50;;;;;;;10.50;7.00;;;;;;;;;;110412;1278;22114;-76
2023/08/05 12:10:18;;;;;;;9.30;6.50;;;;;;;;;;110407;1262;22110;-76
2023/08/05 12:12:45;;;;;;;10.30;7.40;;;;;;;;;;110174;1278;22130;-76
2023/08/05 12:15:17;;;;;;;12.10;8.60;;;;;;;;;;110278;1275;22862;-76
2023/08/05 12:17:45;;;;;;;12.00;8.40;;;;;;;;;;110272;1278;22099;-76
2023/08/05 12:20:14;;;;;;;11.90;7.10;;;;;;;;;;110362;1261;22869;-76
2023/08/05 12:22:41;;;;;;;9.30;6.30;;;;;;;;;;110161;1276;22834;-76
2023/08/05 12:25:07;;;;;;;10.90;6.70;;;;;;;;;;110294;1278;22105;-76
2023/08/05 12:27:34;;;;;;;9.10;5.90;;;;;;;;;;110183;1278;22187;-76
2023/08/05 12:30:01;;;;;;;10.10;5.70;;;;;;;;;;110184;1261;22127;-76
2023/08/05 12:32:28;;;;;;;10.30;6.20;;;;;;;;;;110271;1278;22156;-76
2023/08/05 12:34:55;;;;;;;10.10;6.80;;;;;;;;;;110210;1278;22556;-76
2023/08/05 12:37:21;;;;;;;11.30;6.60;;;;;;;;;;110276;1278;22105;-76
2023/08/05 12:39:48;;;;;;;9.60;6.10;;;;;;;;;;110285;1256;22137;-76
2023/08/05 12:42:15;;;;;;;11.00;6.80;;;;;;;;;;110207;1278;22122;-76
2023/08/05 12:44:42;;;;;;;8.90;5.50;;;;;;;;;;110206;1278;22817;-76
2023/08/05 12:47:09;;;;;;;10.20;6.30;;;;;;;;;;110152;1279;22138;-76
2023/08/05 12:49:36;;;;;;;10.30;6.50;;;;;;;;;;110168;1274;22143;-77
2023/08/05 12:52:03;;;;;;;9.90;5.60;;;;;;;;;;110512;1262;22120;-76
2023/08/05 12:54:30;;;;;;;8.60;5.00;;;;;;;;;;110213;1278;22145;-76
2023/08/05 12:56:57;;;;;;;9.30;5.30;;;;;;;;;;110181;1278;22851;-77
2023/08/05 12:59:24;;;;;;;10.20;5.80;;;;;;;;;;110148;1278;22148;-77
2023/08/05 13:01:53;;;;;;;9.40;6.40;;;;;;;;;;110398;1262;22140;-76
2023/08/05 13:04:20;;;;;;;9.60;5.70;;;;;;;;;;110327;1278;22120;-76
2023/08/05 13:06:47;;;;;;;8.80;5.90;;;;;;;;;;110083;1278;22838;-77
2023/08/05 13:09:13;;;;;;;8.60;5.20;;;;;;;;;;110209;1278;22104;-76
2023/08/05 13:11:40;;;;;;;9.60;5.80;;;;;;;;;;110512;1260;22188;-76
2023/08/05 13:14:12;;;;;;;10.30;7.30;;;;;;;;;;110325;1265;22084;-77
2023/08/05 13:16:39;;;;;;;11.20;7.80;;;;;;;;;;110071;1278;22851;-76
2023/08/05 13:19:07;;;;;;;11.90;8.00;;;;;;;;;;110300;1278;22742;-77
2023/08/05 13:21:36;;;;;;;11.50;8.60;;;;;;;;;;110359;1257;22161;-77
2023/08/05 13:24:03;;;;;;;9.50;7.50;;;;;;;;;;110193;1278;22137;-76
2023/08/05 13:26:30;;;;;;;11.30;8.00;;;;;;;;;;110128;1279;22957;-77
2023/08/05 13:28:57;;;;;;;10.50;8.10;;;;;;;;;;110320;1278;22146;-78
2023/08/05 13:31:24;;;;;;;11.40;8.60;;;;;;;;;;110358;1256;24305;-77
2023/08/05 13:33:54;;;;;;;12.20;9.60;;;;;;;;;;110165;1278;23049;-77
2023/08/05 13:36:21;;;;;;;12.90;9.60;;;;;;;;;;110143;1278;22295;-77
2023/08/05 13:38:49;;;;;;;13.90;10.20;;;;;;;;;;110227;1278;22364;-77
2023/08/05 13:41:20;;;;;;;11.80;9.80;;;;;;;;;;110304;1256;22247;-77
2023/08/05 13:43:49;;;;;;;12.00;8.50;;;;;;;;;;110059;1279;22127;-78
2023/08/05 13:46:19;;;;;;;15.30;11.10;;;;;;;;;;110175;1279;22061;-79
2023/08/05 13:48:47;;;;;;;13.40;9.50;;;;;;;;;;110269;1279;22094;-79
2023/08/05 13:51:14;;;;;;;12.50;9.00;;;;;;;;;;110198;1256;22802;-79
2023/08/05 13:53:43;;;;;;;10.80;8.10;;;;;;;;;;110194;1275;22063;-78
2023/08/05 13:56:14;;;;;;;10.90;8.50;;;;;;;;;;110167;1279;22476;-78
2023/08/05 13:58:41;;;;;;;11.20;8.50;;;;;;;;;;110169;1279;22112;-78
2023/08/05 14:01:12;;;;;;;11.20;8.70;;;;;;;;;;110072;1270;22345;-78
2023/08/05 14:03:38;;;;;;;11.00;7.80;;;;;;;;;;110116;1263;22104;-78
2023/08/05 14:06:05;;;;;;;12.10;8.70;;;;;;;;;;110193;1279;22083;-78
2023/08/05 14:08:32;;;;;;;11.00;8.50;;;;;;;;;;110117;1279;22773;-78
2023/08/05 14:10:59;;;;;;;11.70;8.60;;;;;;;;;;110117;1279;22915;-79
2023/08/05 14:13:26;;;;;;;10.60;7.80;;;;;;;;;;110372;1262;22124;-78
2023/08/05 14:15:54;;;;;;;12.40;9.40;;;;;;;;;;110139;1279;22098;-78
2023/08/05 14:18:21;;;;;;;11.60;9.20;;;;;;;;;;110155;1279;22299;-79
2023/08/05 14:20:48;;;;;;;13.80;9.40;;;;;;;;;;110115;1267;22346;-78
2023/08/05 14:23:15;;;;;;;13.80;10.00;;;;;;;;;;110168;1260;22137;-79
2023/08/05 14:25:44;;;;;;;13.40;10.20;;;;;;;;;;110100;1279;22133;-79
2023/08/05 14:28:12;;;;;;;11.80;9.30;;;;;;;;;;110146;1275;22879;-79
2023/08/05 14:30:39;;;;;;;12.20;9.70;;;;;;;;;;110072;1279;22892;-79
2023/08/05 14:33:06;;;;;;;14.20;9.90;;;;;;;;;;110404;1260;22084;-79